Time;durP1;ratioP1;P1;durP2;ratioP2;P2;SDS_P1;SDS_P2;PMS_P1;PMS_P2;Temp;Humidity;BMP_temperature;BMP_pressure;BME280_temperature;BME280_humidity;BME280_pressure;Samples;Min_cycle;Max_cycle;Signal;HPM_P1;HPM_P2
2022/11/11 00:01:33;;;;;;;;;;;3.60;99.90;;;;;;5076787;28;19919;-72
2022/11/11 00:03:58;;;;;;;;;;;3.50;99.90;;;;;;5076971;28;19995;-72
2022/11/11 00:06:24;;;;;;;;;;;3.50;99.90;;;;;;5076534;28;20266;-72
2022/11/11 00:08:49;;;;;;;;;;;3.40;99.90;;;;;;5075402;28;19916;-72
2022/11/11 00:11:15;;;;;;;;;;;3.30;99.90;;;;;;5076896;28;20394;-72
2022/11/11 00:13:42;;;;;;;;;;;3.20;99.90;;;;;;5076498;28;19909;-72
2022/11/11 00:16:09;;;;;;;;;;;3.10;99.90;;;;;;5076582;28;19912;-72
2022/11/11 00:27:06;;;;;;;;;;;2.80;99.90;;;;;;5077006;28;20272;-72
2022/11/11 00:29:32;;;;;;;;;;;2.70;99.90;;;;;;5074903;28;20399;-72
2022/11/11 00:35:51;;;;;;;;;;;2.60;99.90;;;;;;5075312;28;19935;-72
2022/11/11 00:37:27;;;;;;;;;;;2.60;99.90;;;;;;5075904;28;19966;-72
2022/11/11 00:39:53;;;;;;;;;;;2.50;99.90;;;;;;5076030;28;20261;-72
2022/11/11 00:42:18;;;;;;;;;;;2.60;99.90;;;;;;5075053;28;19934;-72
2022/11/11 00:44:44;;;;;;;;;;;2.60;99.90;;;;;;5076008;28;19909;-72
2022/11/11 00:52:38;;;;;;;;;;;2.70;99.90;;;;;;5075837;28;19958;-72
2022/11/11 00:55:04;;;;;;;;;;;2.70;99.90;;;;;;5075633;28;19912;-71
2022/11/11 00:57:29;;;;;;;;;;;2.60;99.90;;;;;;5074404;28;19918;-71
2022/11/11 00:59:55;;;;;;;;;;;2.60;99.90;;;;;;5075737;28;20003;-71
2022/11/11 01:02:20;;;;;;;;;;;2.60;99.90;;;;;;5075665;28;19919;-72
2022/11/11 01:04:46;;;;;;;;;;;2.60;99.90;;;;;;5074467;28;20004;-72
2022/11/11 01:07:11;;;;;;;;;;;2.60;99.90;;;;;;5075611;28;19912;-72
2022/11/11 01:09:37;;;;;;;;;;;2.70;99.90;;;;;;5074561;28;19916;-72
2022/11/11 01:12:02;;;;;;;;;;;2.80;99.90;;;;;;5075814;28;19919;-72
2022/11/11 01:14:29;;;;;;;;;;;2.80;99.90;;;;;;5075376;28;19916;-72
2022/11/11 01:16:54;;;;;;;;;;;2.90;99.90;;;;;;5074195;28;19920;-72
2022/11/11 01:19:20;;;;;;;;;;;2.90;99.90;;;;;;5075273;28;19913;-72
2022/11/11 01:21:45;;;;;;;;;;;3.00;99.90;;;;;;5075820;28;19959;-72
2022/11/11 01:24:11;;;;;;;;;;;3.00;99.90;;;;;;5075215;28;19913;-72
2022/11/11 01:26:36;;;;;;;;;;;3.00;99.90;;;;;;5075090;28;19959;-72
2022/11/11 01:29:02;;;;;;;;;;;3.00;99.90;;;;;;5075309;28;19916;-72
2022/11/11 01:31:28;;;;;;;;;;;3.10;99.90;;;;;;5075399;28;19958;-72
2022/11/11 01:33:53;;;;;;;;;;;3.10;99.90;;;;;;5074996;28;19948;-72
2022/11/11 01:36:20;;;;;;;;;;;3.10;99.90;;;;;;5074897;28;20376;-72
2022/11/11 01:38:50;;;;;;;;;;;3.10;99.90;;;;;;5073615;28;19908;-71
2022/11/11 01:41:32;;;;;;;;;;;3.10;99.90;;;;;;5074888;28;19910;-72
2022/11/11 01:43:58;;;;;;;;;;;3.10;99.90;;;;;;5074885;28;19912;-72
2022/11/11 01:46:32;;;;;;;;;;;3.10;99.90;;;;;;5074718;28;20004;-72
2022/11/11 01:49:20;;;;;;;;;;;3.10;99.90;;;;;;5074700;28;19912;-72
2022/11/11 01:52:08;;;;;;;;;;;3.10;99.90;;;;;;5074949;28;20249;-72
2022/11/11 01:54:34;;;;;;;;;;;3.10;99.90;;;;;;5063735;28;19957;-72
2022/11/11 01:57:19;;;;;;;;;;;3.10;99.90;;;;;;5073250;28;20007;-72
2022/11/11 01:59:46;;;;;;;;;;;3.10;99.90;;;;;;5073061;28;19909;-72
2022/11/11 02:02:21;;;;;;;;;;;3.00;99.90;;;;;;5074421;28;19995;-72
2022/11/11 02:07:32;;;;;;;;;;;2.90;99.90;;;;;;5074943;28;20396;-72
2022/11/11 02:09:58;;;;;;;;;;;2.90;99.90;;;;;;5074535;28;19951;-72
2022/11/11 02:15:08;;;;;;;;;;;2.80;99.90;;;;;;5074479;28;19962;-72
2022/11/11 02:17:33;;;;;;;;;;;2.70;99.90;;;;;;5074138;28;19947;-72
2022/11/11 02:20:00;;;;;;;;;;;2.70;99.90;;;;;;5072869;28;19995;-72
2022/11/11 02:22:26;;;;;;;;;;;2.70;99.90;;;;;;5074020;28;19909;-72
2022/11/11 02:24:52;;;;;;;;;;;2.70;99.90;;;;;;5073909;28;19966;-72
2022/11/11 02:27:19;;;;;;;;;;;2.60;99.90;;;;;;5074005;28;20341;-72
2022/11/11 02:29:46;;;;;;;;;;;2.50;99.90;;;;;;5073918;28;20006;-72
2022/11/11 02:32:11;;;;;;;;;;;2.40;99.90;;;;;;5073915;28;19909;-72
2022/11/11 02:34:37;;;;;;;;;;;2.40;99.90;;;;;;5074094;28;19958;-72
2022/11/11 02:37:05;;;;;;;;;;;2.40;99.90;;;;;;5073888;28;20016;-72
2022/11/11 02:39:32;;;;;;;;;;;2.40;99.90;;;;;;5074151;28;19908;-72
2022/11/11 02:41:57;;;;;;;;;;;2.40;99.90;;;;;;5074030;28;19915;-72
2022/11/11 02:44:23;;;;;;;;;;;2.30;99.90;;;;;;5073715;28;19912;-72
2022/11/11 02:46:49;;;;;;;;;;;2.30;99.90;;;;;;5073722;28;19913;-72
2022/11/11 02:49:14;;;;;;;;;;;2.30;99.90;;;;;;5073668;28;19913;-71
2022/11/11 02:51:40;;;;;;;;;;;2.30;99.90;;;;;;5073703;28;19966;-72
2022/11/11 02:54:05;;;;;;;;;;;2.20;99.90;;;;;;5073991;28;19908;-72
2022/11/11 02:59:15;;;;;;;;;;;2.10;99.90;;;;;;5074226;28;19942;-72
2022/11/11 03:01:41;;;;;;;;;;;2.10;99.90;;;;;;5073626;28;19908;-72
2022/11/11 03:04:06;;;;;;;;;;;2.10;99.90;;;;;;5073819;28;19919;-72
2022/11/11 03:06:32;;;;;;;;;;;2.20;99.90;;;;;;5073338;28;19964;-72
2022/11/11 03:08:58;;;;;;;;;;;2.20;99.90;;;;;;5073716;28;19920;-72
2022/11/11 03:11:26;;;;;;;;;;;2.20;99.90;;;;;;5073337;28;20368;-72
2022/11/11 03:13:58;;;;;;;;;;;2.20;99.90;;;;;;5073720;28;19908;-72
2022/11/11 03:19:08;;;;;;;;;;;2.10;99.90;;;;;;5073012;28;19977;-72
2022/11/11 03:21:33;;;;;;;;;;;2.10;99.90;;;;;;5073646;28;20336;-72
2022/11/11 03:23:59;;;;;;;;;;;2.10;99.90;;;;;;5073617;28;19936;-72
2022/11/11 03:26:24;;;;;;;;;;;2.10;99.90;;;;;;5072086;28;19919;-72
2022/11/11 03:28:50;;;;;;;;;;;2.10;99.90;;;;;;5073274;28;19917;-72
2022/11/11 03:31:16;;;;;;;;;;;2.00;99.90;;;;;;5073196;28;19920;-72
2022/11/11 03:33:42;;;;;;;;;;;2.00;99.90;;;;;;5072051;28;19912;-72
2022/11/11 03:36:07;;;;;;;;;;;2.00;99.90;;;;;;5073137;28;19908;-72
2022/11/11 03:38:33;;;;;;;;;;;2.00;99.90;;;;;;5071831;28;20364;-72
2022/11/11 03:40:58;;;;;;;;;;;2.00;99.90;;;;;;5073091;28;20383;-72
2022/11/11 03:43:25;;;;;;;;;;;2.10;99.90;;;;;;5073351;28;20023;-72
2022/11/11 03:45:55;;;;;;;;;;;2.10;99.90;;;;;;5073056;28;19974;-72
2022/11/11 03:48:21;;;;;;;;;;;2.00;99.90;;;;;;5072991;28;19917;-72
2022/11/11 03:50:47;;;;;;;;;;;2.00;99.90;;;;;;5073045;28;19909;-72
2022/11/11 03:53:13;;;;;;;;;;;2.00;99.90;;;;;;5072938;28;19939;-72
2022/11/11 03:55:39;;;;;;;;;;;2.00;99.90;;;;;;5073202;28;20291;-72
2022/11/11 03:58:05;;;;;;;;;;;2.00;99.90;;;;;;5072984;28;19919;-72
2022/11/11 04:00:30;;;;;;;;;;;2.10;99.90;;;;;;5072929;28;20261;-72
2022/11/11 04:11:12;;;;;;;;;;;2.10;99.90;;;;;;5073497;28;19973;-72
2022/11/11 04:16:23;;;;;;;;;;;2.10;99.90;;;;;;5073154;28;19920;-72
2022/11/11 04:21:42;;;;;;;;;;;2.10;99.90;;;;;;5073607;28;19962;-72
2022/11/11 04:26:59;;;;;;;;;;;2.10;99.90;;;;;;5076861;28;19932;-72
2022/11/11 04:29:27;;;;;;;;;;;2.00;99.90;;;;;;5075402;28;20245;-72
2022/11/11 04:34:51;;;;;;;;;;;1.90;99.90;;;;;;5076483;28;20386;-72
2022/11/11 04:37:18;;;;;;;;;;;1.90;99.90;;;;;;5076203;28;19909;-72
2022/11/11 04:42:28;;;;;;;;;;;1.90;99.90;;;;;;5078364;28;19919;-72
2022/11/11 04:47:50;;;;;;;;;;;1.90;99.90;;;;;;5076095;28;20445;-73
2022/11/11 04:50:16;;;;;;;;;;;1.90;99.90;;;;;;5074453;28;19913;-73
2022/11/11 04:52:42;;;;;;;;;;;1.80;99.90;;;;;;5075743;28;19919;-73
2022/11/11 04:57:51;;;;;;;;;;;1.80;99.90;;;;;;5074806;28;19966;-72
2022/11/11 05:00:17;;;;;;;;;;;1.80;99.90;;;;;;5075351;28;19916;-72
2022/11/11 05:03:43;;;;;;;;;;;1.80;99.90;;;;;;5075447;28;20334;-72
2022/11/11 05:11:10;;;;;;;;;;;1.90;99.90;;;;;;5075823;28;19919;-71
2022/11/11 05:22:00;;;;;;;;;;;1.80;99.90;;;;;;5073692;28;19919;-71
2022/11/11 05:27:10;;;;;;;;;;;1.60;99.90;;;;;;5074757;28;19920;-71
2022/11/11 05:29:35;;;;;;;;;;;1.50;99.90;;;;;;5075083;28;19913;-71
2022/11/11 05:32:01;;;;;;;;;;;1.50;99.90;;;;;;5075370;28;19958;-70
2022/11/11 05:34:26;;;;;;;;;;;1.40;99.90;;;;;;5074194;28;19940;-71
2022/11/11 05:36:52;;;;;;;;;;;1.40;99.90;;;;;;5073760;28;19913;-70
2022/11/11 05:39:17;;;;;;;;;;;1.40;99.90;;;;;;5074881;28;20027;-70
2022/11/11 05:41:43;;;;;;;;;;;1.50;99.90;;;;;;5075380;28;19970;-70
2022/11/11 05:44:08;;;;;;;;;;;1.50;99.90;;;;;;5074790;28;20367;-70
2022/11/11 05:46:34;;;;;;;;;;;1.50;99.90;;;;;;5074697;28;19916;-70
2022/11/11 05:49:14;;;;;;;;;;;1.50;99.90;;;;;;5074692;28;20280;-70
2022/11/11 05:51:40;;;;;;;;;;;1.50;99.90;;;;;;5075294;28;19912;-70
2022/11/11 05:54:06;;;;;;;;;;;1.50;99.90;;;;;;5074373;28;19909;-71
2022/11/11 05:56:31;;;;;;;;;;;1.50;99.90;;;;;;5072588;28;19939;-71
2022/11/11 05:58:57;;;;;;;;;;;1.50;99.90;;;;;;5074558;28;20324;-70
2022/11/11 06:01:22;;;;;;;;;;;1.50;99.90;;;;;;5074525;28;20284;-70
2022/11/11 06:03:48;;;;;;;;;;;1.50;99.90;;;;;;5074483;28;19909;-70
2022/11/11 06:06:14;;;;;;;;;;;1.50;99.90;;;;;;5074250;28;20008;-70
2022/11/11 06:08:40;;;;;;;;;;;1.50;99.90;;;;;;5074278;28;19962;-70
2022/11/11 06:11:05;;;;;;;;;;;1.50;99.90;;;;;;5074334;28;19987;-70
2022/11/11 06:13:31;;;;;;;;;;;1.50;99.90;;;;;;5073001;28;19922;-70
2022/11/11 06:15:57;;;;;;;;;;;1.40;99.90;;;;;;5074476;28;19962;-70
2022/11/11 06:18:23;;;;;;;;;;;1.40;99.90;;;;;;5074200;28;19995;-70
2022/11/11 06:20:53;;;;;;;;;;;1.40;99.90;;;;;;5074158;28;19991;-70
2022/11/11 06:23:18;;;;;;;;;;;1.40;99.90;;;;;;5074126;28;19909;-70
2022/11/11 06:28:28;;;;;;;;;;;1.40;99.90;;;;;;5074225;28;19923;-70
2022/11/11 06:30:53;;;;;;;;;;;1.40;99.90;;;;;;5074307;28;19912;-70
2022/11/11 06:33:20;;;;;;;;;;;1.40;99.90;;;;;;5073987;28;19920;-70
2022/11/11 06:35:46;;;;;;;;;;;1.40;99.90;;;;;;5074089;28;19982;-70
2022/11/11 06:38:11;;;;;;;;;;;1.30;99.90;;;;;;5074491;28;19912;-70
2022/11/11 06:40:37;;;;;;;;;;;1.30;99.90;;;;;;5072667;28;19913;-70
2022/11/11 06:43:02;;;;;;;;;;;1.30;99.90;;;;;;5073849;28;20379;-70
2022/11/11 06:45:29;;;;;;;;;;;1.40;99.90;;;;;;5073659;28;19919;-70
2022/11/11 06:47:54;;;;;;;;;;;1.40;99.90;;;;;;5072536;28;19917;-70
2022/11/11 06:50:20;;;;;;;;;;;1.40;99.90;;;;;;5074234;28;19919;-70
2022/11/11 06:52:46;;;;;;;;;;;1.40;99.90;;;;;;5073989;28;20272;-70
2022/11/11 06:55:11;;;;;;;;;;;1.30;99.90;;;;;;5073891;28;19912;-70
2022/11/11 06:57:37;;;;;;;;;;;1.40;99.90;;;;;;5073667;28;19920;-70
2022/11/11 07:00:06;;;;;;;;;;;1.40;99.90;;;;;;5073909;28;19912;-70
2022/11/11 07:02:31;;;;;;;;;;;1.40;99.90;;;;;;5073911;28;20391;-70
2022/11/11 07:04:57;;;;;;;;;;;1.40;99.90;;;;;;5073369;28;19909;-70
2022/11/11 07:07:22;;;;;;;;;;;1.40;99.90;;;;;;5073879;28;19920;-70
2022/11/11 07:09:48;;;;;;;;;;;1.40;99.90;;;;;;5074031;28;20015;-70
2022/11/11 07:12:14;;;;;;;;;;;1.40;99.90;;;;;;5073562;28;20299;-70
2022/11/11 07:14:39;;;;;;;;;;;1.40;99.90;;;;;;5073780;28;19909;-70
2022/11/11 07:17:05;;;;;;;;;;;1.50;99.90;;;;;;5073471;28;19966;-70
2022/11/11 07:19:30;;;;;;;;;;;1.50;99.90;;;;;;5073513;28;19915;-70
2022/11/11 07:21:56;;;;;;;;;;;1.60;99.90;;;;;;5073427;28;19947;-70
2022/11/11 07:24:21;;;;;;;;;;;1.70;99.90;;;;;;5073408;28;19919;-70
2022/11/11 07:26:47;;;;;;;;;;;1.80;99.90;;;;;;5073378;28;20326;-70
2022/11/11 07:29:14;;;;;;;;;;;1.90;99.90;;;;;;5073374;28;20011;-70
2022/11/11 07:31:40;;;;;;;;;;;2.00;99.90;;;;;;5073604;28;19935;-71
2022/11/11 07:34:05;;;;;;;;;;;2.10;99.90;;;;;;5073294;28;19947;-71
2022/11/11 07:36:31;;;;;;;;;;;2.20;99.90;;;;;;5073227;28;19923;-71
2022/11/11 07:38:57;;;;;;;;;;;2.30;99.90;;;;;;5073498;28;19916;-71
2022/11/11 07:41:22;;;;;;;;;;;2.40;99.90;;;;;;5073302;28;19919;-71
2022/11/11 07:43:48;;;;;;;;;;;2.40;99.90;;;;;;5073534;28;19913;-71
2022/11/11 07:46:13;;;;;;;;;;;2.50;99.90;;;;;;5073137;28;19943;-71
2022/11/11 07:48:39;;;;;;;;;;;2.60;99.90;;;;;;5073158;28;19912;-71
2022/11/11 07:51:04;;;;;;;;;;;2.70;99.90;;;;;;5073428;28;19938;-71
2022/11/11 07:53:30;;;;;;;;;;;2.70;99.90;;;;;;5071869;28;19950;-71
2022/11/11 07:55:55;;;;;;;;;;;2.80;99.90;;;;;;5073022;28;19913;-71
2022/11/11 07:58:21;;;;;;;;;;;2.80;99.90;;;;;;5076779;28;19995;-71
2022/11/11 08:00:46;;;;;;;;;;;2.90;99.90;;;;;;5076832;28;19948;-71
2022/11/11 08:03:12;;;;;;;;;;;2.90;99.90;;;;;;5077065;28;19912;-71
2022/11/11 08:05:38;;;;;;;;;;;3.00;99.90;;;;;;5076625;28;19974;-71
2022/11/11 08:08:07;;;;;;;;;;;3.10;99.90;;;;;;5076588;28;19912;-71
2022/11/11 08:10:32;;;;;;;;;;;3.10;99.90;;;;;;5076834;28;19920;-71
2022/11/11 08:15:42;;;;;;;;;;;3.20;99.90;;;;;;5076562;28;19973;-71
2022/11/11 08:18:07;;;;;;;;;;;3.30;99.90;;;;;;5076539;28;20372;-71
2022/11/11 08:20:33;;;;;;;;;;;3.30;99.90;;;;;;5075481;28;20374;-71
2022/11/11 08:22:59;;;;;;;;;;;3.40;99.90;;;;;;5076460;28;19920;-71
2022/11/11 08:25:25;;;;;;;;;;;3.50;99.90;;;;;;5076545;28;20275;-71
2022/11/11 08:27:57;;;;;;;;;;;3.60;99.90;;;;;;5076346;28;19928;-71
2022/11/11 08:30:23;;;;;;;;;;;3.70;99.90;;;;;;5076223;28;19912;-71
2022/11/11 08:32:55;;;;;;;;;;;3.70;99.90;;;;;;5076557;28;19962;-71
2022/11/11 08:35:20;;;;;;;;;;;3.80;99.90;;;;;;5076187;28;20025;-71
2022/11/11 08:37:46;;;;;;;;;;;3.90;99.90;;;;;;5076201;28;19917;-71
2022/11/11 08:40:11;;;;;;;;;;;3.90;99.90;;;;;;5076405;28;19920;-71
2022/11/11 08:42:37;;;;;;;;;;;4.00;99.90;;;;;;5076060;28;20012;-70
2022/11/11 08:45:03;;;;;;;;;;;4.10;99.90;;;;;;5075985;28;20372;-70
2022/11/11 08:47:28;;;;;;;;;;;4.10;99.90;;;;;;5076240;28;19913;-70
2022/11/11 08:49:54;;;;;;;;;;;4.10;99.90;;;;;;5074995;28;19920;-70
2022/11/11 08:52:19;;;;;;;;;;;4.20;99.90;;;;;;5075933;28;19912;-70
2022/11/11 08:54:45;;;;;;;;;;;4.20;99.90;;;;;;5074509;28;19920;-70
2022/11/11 08:57:10;;;;;;;;;;;4.20;99.90;;;;;;5075841;28;19958;-70
2022/11/11 08:59:36;;;;;;;;;;;4.30;99.90;;;;;;5075739;28;19912;-70
2022/11/11 09:02:02;;;;;;;;;;;4.30;99.90;;;;;;5075805;28;19913;-70
2022/11/11 09:04:27;;;;;;;;;;;4.40;99.90;;;;;;5075981;28;20344;-70
2022/11/11 09:06:53;;;;;;;;;;;4.40;99.90;;;;;;5074216;28;19921;-70
2022/11/11 09:09:19;;;;;;;;;;;4.50;99.90;;;;;;5075350;28;19974;-70
2022/11/11 09:11:44;;;;;;;;;;;4.60;99.90;;;;;;5074614;28;20315;-70
2022/11/11 09:14:10;;;;;;;;;;;4.60;99.90;;;;;;5074225;28;20275;-70
2022/11/11 09:16:35;;;;;;;;;;;4.70;99.90;;;;;;5075386;28;19912;-70
2022/11/11 09:19:01;;;;;;;;;;;4.80;99.90;;;;;;5075457;28;19966;-70
2022/11/11 09:21:26;;;;;;;;;;;4.80;99.90;;;;;;5075659;28;20288;-70
2022/11/11 09:23:52;;;;;;;;;;;4.90;99.90;;;;;;5075344;28;20364;-70
2022/11/11 09:26:17;;;;;;;;;;;5.00;99.90;;;;;;5075277;28;19913;-70
2022/11/11 09:28:43;;;;;;;;;;;5.00;99.90;;;;;;5075184;28;20374;-70
2022/11/11 09:31:09;;;;;;;;;;;5.10;99.90;;;;;;5075445;28;20482;-70
2022/11/11 09:33:34;;;;;;;;;;;5.10;99.90;;;;;;5058011;28;19912;-70
2022/11/11 09:36:00;;;;;;;;;;;5.20;99.90;;;;;;5073685;28;19919;-70
2022/11/11 09:38:25;;;;;;;;;;;5.30;99.90;;;;;;5075008;28;19986;-70
2022/11/11 09:40:51;;;;;;;;;;;5.40;99.90;;;;;;5074961;28;20427;-70
2022/11/11 09:43:19;;;;;;;;;;;5.40;99.90;;;;;;5074902;28;19909;-70
2022/11/11 09:45:45;;;;;;;;;;;5.50;99.90;;;;;;5074812;28;19936;-70
2022/11/11 09:48:29;;;;;;;;;;;5.60;99.90;;;;;;5074742;28;20379;-70
2022/11/11 09:50:57;;;;;;;;;;;5.70;99.90;;;;;;5075103;28;20261;-70
2022/11/11 09:53:22;;;;;;;;;;;5.90;99.90;;;;;;5073402;28;19995;-70
2022/11/11 09:55:51;;;;;;;;;;;6.00;99.90;;;;;;5074594;28;19963;-70
2022/11/11 09:58:22;;;;;;;;;;;6.10;99.90;;;;;;5074596;28;19955;-70
2022/11/11 10:00:54;;;;;;;;;;;6.20;99.90;;;;;;5074805;28;19908;-70
2022/11/11 10:03:21;;;;;;;;;;;6.30;99.90;;;;;;5074518;28;19915;-70
2022/11/11 10:06:05;;;;;;;;;;;6.40;99.90;;;;;;5074265;28;19921;-70
2022/11/11 10:08:40;;;;;;;;;;;6.50;99.90;;;;;;5074280;28;19912;-70
2022/11/11 10:11:10;;;;;;;;;;;6.60;99.90;;;;;;5074564;28;20279;-70
2022/11/11 10:13:37;;;;;;;;;;;6.70;99.90;;;;;;5073049;28;20368;-70
2022/11/11 10:16:13;;;;;;;;;;;6.80;99.90;;;;;;5073540;28;19912;-70
2022/11/11 10:18:39;;;;;;;;;;;6.90;99.90;;;;;;5074167;28;20431;-70
2022/11/11 10:21:09;;;;;;;;;;;7.00;99.90;;;;;;5073625;28;19951;-70
2022/11/11 10:23:36;;;;;;;;;;;7.10;99.90;;;;;;5074412;28;19915;-70
2022/11/11 10:26:06;;;;;;;;;;;7.20;99.90;;;;;;5073951;28;19908;-70
2022/11/11 10:28:34;;;;;;;;;;;7.40;99.90;;;;;;5074000;28;19920;-70
2022/11/11 10:31:01;;;;;;;;;;;7.50;99.90;;;;;;5074272;28;19970;-70
2022/11/11 10:33:28;;;;;;;;;;;7.60;99.90;;;;;;5074003;28;19917;-70
2022/11/11 10:35:56;;;;;;;;;;;7.70;99.90;;;;;;5073906;28;19915;-70
2022/11/11 10:38:25;;;;;;;;;;;7.80;99.90;;;;;;5073912;28;19908;-70
2022/11/11 10:40:54;;;;;;;;;;;7.80;99.90;;;;;;5074305;28;19915;-70
2022/11/11 10:43:21;;;;;;;;;;;7.90;99.90;;;;;;5072578;28;20011;-70
2022/11/11 10:45:59;;;;;;;;;;;8.00;99.90;;;;;;5074041;28;20390;-70
2022/11/11 10:48:45;;;;;;;;;;;8.00;99.90;;;;;;5073705;28;19939;-70
2022/11/11 10:51:11;;;;;;;;;;;8.10;99.90;;;;;;5073290;28;19914;-70
2022/11/11 10:53:42;;;;;;;;;;;8.20;99.90;;;;;;5073811;28;19919;-70
2022/11/11 10:56:25;;;;;;;;;;;8.30;99.90;;;;;;5073631;28;19951;-70
2022/11/11 10:59:00;;;;;;;;;;;8.30;99.90;;;;;;5073902;28;19909;-70
2022/11/11 11:01:29;;;;;;;;;;;8.40;99.90;;;;;;5073890;28;19948;-71
2022/11/11 11:03:58;;;;;;;;;;;8.50;99.90;;;;;;5073606;28;19916;-70
2022/11/11 11:06:26;;;;;;;;;;;8.50;99.90;;;;;;5073962;28;20089;-70
2022/11/11 11:08:54;;;;;;;;;;;8.50;99.90;;;;;;5073498;28;19912;-70
2022/11/11 11:11:28;;;;;;;;;;;8.60;99.90;;;;;;5073547;28;19957;-70
2022/11/11 11:13:58;;;;;;;;;;;8.60;99.90;;;;;;5073630;28;19908;-70
2022/11/11 11:16:28;;;;;;;;;;;8.60;99.90;;;;;;5073545;28;19912;-70
2022/11/11 11:19:12;;;;;;;;;;;8.60;99.90;;;;;;5073735;28;19909;-70
2022/11/11 11:21:51;;;;;;;;;;;8.60;99.90;;;;;;5073445;28;19908;-70
2022/11/11 11:24:36;;;;;;;;;;;8.70;99.90;;;;;;5073651;28;20053;-71
2022/11/11 11:27:02;;;;;;;;;;;8.70;99.90;;;;;;5072320;28;20322;-70
2022/11/11 11:29:28;;;;;;;;;;;8.80;99.90;;;;;;5073571;28;19958;-70
2022/11/11 11:31:54;;;;;;;;;;;8.90;99.90;;;;;;5076241;28;19912;-70
2022/11/11 11:34:20;;;;;;;;;;;9.00;99.90;;;;;;5077405;28;20350;-70
2022/11/11 11:37:01;;;;;;;;;;;9.00;99.90;;;;;;5076041;28;19909;-71
2022/11/11 11:39:37;;;;;;;;;;;9.10;99.90;;;;;;5077289;28;19915;-70
2022/11/11 11:42:02;;;;;;;;;;;9.20;99.90;;;;;;5077226;28;19909;-71
2022/11/11 11:44:32;;;;;;;;;;;9.30;99.90;;;;;;5077202;28;19915;-71
2022/11/11 11:47:01;;;;;;;;;;;9.40;99.90;;;;;;5077388;28;20413;-71
2022/11/11 11:49:45;;;;;;;;;;;9.40;99.90;;;;;;5075705;28;19913;-70
2022/11/11 11:52:15;;;;;;;;;;;9.50;99.90;;;;;;5077038;28;19908;-71
2022/11/11 11:54:47;;;;;;;;;;;9.60;99.90;;;;;;5077333;28;19915;-71
2022/11/11 11:57:21;;;;;;;;;;;9.70;99.90;;;;;;5076938;28;20379;-71
2022/11/11 11:59:47;;;;;;;;;;;9.80;99.90;;;;;;5075606;28;19908;-71
2022/11/11 12:02:39;;;;;;;;;;;9.90;99.90;;;;;;5076838;28;20007;-71
2022/11/11 12:05:24;;;;;;;;;;;10.00;99.90;;;;;;5077051;28;19912;-71
2022/11/11 12:07:55;;;;;;;;;;;10.00;99.90;;;;;;5077056;28;20420;-71
2022/11/11 12:10:24;;;;;;;;;;;10.10;99.90;;;;;;5076854;28;19912;-71
2022/11/11 12:12:52;;;;;;;;;;;10.10;99.90;;;;;;5076950;28;19944;-71
2022/11/11 12:15:30;;;;;;;;;;;10.10;99.90;;;;;;5076509;28;19999;-71
2022/11/11 12:18:14;;;;;;;;;;;10.20;99.90;;;;;;5075234;28;20011;-71
2022/11/11 12:20:58;;;;;;;;;;;10.20;99.90;;;;;;5076505;28;19908;-71
2022/11/11 12:23:39;;;;;;;;;;;10.30;99.90;;;;;;5076192;28;19920;-71
2022/11/11 12:26:04;;;;;;;;;;;10.40;99.90;;;;;;5075921;28;20375;-71
2022/11/11 12:28:42;;;;;;;;;;;10.40;99.90;;;;;;5076290;28;19975;-71
2022/11/11 12:31:13;;;;;;;;;;;10.50;99.90;;;;;;5076351;28;19931;-71
2022/11/11 12:33:39;;;;;;;;;;;10.60;99.90;;;;;;5076320;28;19908;-71
2022/11/11 12:36:28;;;;;;;;;;;10.80;99.90;;;;;;5076168;28;20374;-71
2022/11/11 12:39:06;;;;;;;;;;;10.90;99.90;;;;;;5076234;28;20287;-71
2022/11/11 12:42:00;;;;;;;;;;;11.00;99.90;;;;;;5076235;28;19909;-71
2022/11/11 12:44:36;;;;;;;;;;;11.00;99.90;;;;;;5070955;28;19909;-71
2022/11/11 12:47:16;;;;;;;;;;;11.20;99.90;;;;;;5075425;28;19912;-71
2022/11/11 12:49:48;;;;;;;;;;;11.20;99.90;;;;;;5074895;28;19916;-71
2022/11/11 12:52:13;;;;;;;;;;;11.30;99.90;;;;;;5076023;28;19908;-72
2022/11/11 12:54:42;;;;;;;;;;;11.30;99.90;;;;;;5074958;28;19953;-72
2022/11/11 12:57:14;;;;;;;;;;;11.40;99.90;;;;;;5075906;28;19908;-71
2022/11/11 12:59:55;;;;;;;;;;;11.50;99.90;;;;;;5074557;28;19980;-71
2022/11/11 13:02:39;;;;;;;;;;;11.50;99.90;;;;;;5075759;28;19908;-71
2022/11/11 13:05:08;;;;;;;;;;;11.50;99.90;;;;;;5075486;28;19921;-71
2022/11/11 13:07:52;;;;;;;;;;;11.50;99.90;;;;;;5075709;28;20344;-70
2022/11/11 13:10:26;;;;;;;;;;;11.60;99.90;;;;;;5075805;28;19919;-72
2022/11/11 13:13:10;;;;;;;;;;;11.70;99.90;;;;;;5075574;28;20451;-72
2022/11/11 13:15:36;;;;;;;;;;;11.70;99.90;;;;;;5075460;28;19909;-72
2022/11/11 13:18:01;;;;;;;;;;;11.70;99.90;;;;;;5075471;28;19912;-71
2022/11/11 13:20:27;;;;;;;;;;;11.70;99.90;;;;;;5075450;28;19944;-71
2022/11/11 13:22:52;;;;;;;;;;;11.70;99.90;;;;;;5075403;28;19932;-71
2022/11/11 13:25:22;;;;;;;;;;;11.80;99.90;;;;;;5075469;28;20482;-70
2022/11/11 13:27:52;;;;;;;;;;;11.80;99.90;;;;;;5075897;28;19908;-71
2022/11/11 13:30:20;;;;;;;;;;;11.80;99.90;;;;;;5075119;28;19912;-71
2022/11/11 13:32:49;;;;;;;;;;;11.90;99.90;;;;;;5075169;28;19909;-71
2022/11/11 13:35:44;;;;;;;;;;;11.90;99.90;;;;;;5075281;28;20368;-71
2022/11/11 13:38:24;;;;;;;;;;;11.90;99.90;;;;;;5070122;28;19908;-71
2022/11/11 13:40:51;;;;;;;;;;;11.90;99.90;;;;;;5074987;28;19947;-72
2022/11/11 13:43:37;;;;;;;;;;;11.80;99.90;;;;;;5074946;28;19908;-71
2022/11/11 13:46:04;;;;;;;;;;;11.80;99.90;;;;;;5070781;28;19915;-71
2022/11/11 13:48:29;;;;;;;;;;;11.70;99.90;;;;;;5073521;28;19909;-71
2022/11/11 13:51:10;;;;;;;;;;;11.70;99.90;;;;;;5074800;28;19909;-71
2022/11/11 13:53:36;;;;;;;;;;;11.70;99.90;;;;;;5074780;28;19995;-71
2022/11/11 13:56:03;;;;;;;;;;;11.70;99.90;;;;;;5074118;28;19912;-71
2022/11/11 13:58:47;;;;;;;;;;;11.70;99.90;;;;;;5073645;28;20414;-70
2022/11/11 14:01:13;;;;;;;;;;;11.70;99.90;;;;;;5073314;28;19912;-71
2022/11/11 14:03:42;;;;;;;;;;;11.70;99.90;;;;;;5074499;28;19957;-71
2022/11/11 14:06:13;;;;;;;;;;;11.70;99.90;;;;;;5074457;28;19920;-74
2022/11/11 14:08:44;;;;;;;;;;;11.60;99.90;;;;;;5074341;28;19912;-75
2022/11/11 14:11:25;;;;;;;;;;;11.60;99.90;;;;;;5074404;28;19908;-75
2022/11/11 14:13:54;;;;;;;;;;;11.60;99.90;;;;;;5074294;28;19908;-74
2022/11/11 14:16:36;;;;;;;;;;;11.60;99.90;;;;;;5091308;28;19912;-74
2022/11/11 14:19:19;;;;;;;;;;;11.50;99.90;;;;;;5091241;28;19912;-74
2022/11/11 14:21:48;;;;;;;;;;;11.50;99.90;;;;;;5091133;28;19912;-74
2022/11/11 14:24:33;;;;;;;;;;;11.50;99.90;;;;;;5091050;28;19951;-74
2022/11/11 14:26:59;;;;;;;;;;;11.50;99.90;;;;;;5089627;28;19977;-74
2022/11/11 14:29:45;;;;;;;;;;;11.50;99.90;;;;;;5091215;28;20385;-74
2022/11/11 14:32:22;;;;;;;;;;;11.50;99.90;;;;;;5090442;28;19909;-74
2022/11/11 14:34:53;;;;;;;;;;;11.50;99.90;;;;;;5090697;28;19912;-74
2022/11/11 14:37:24;;;;;;;;;;;11.50;99.90;;;;;;5089847;28;20318;-71
2022/11/11 14:39:51;;;;;;;;;;;11.50;99.90;;;;;;5091001;28;19909;-72
2022/11/11 14:42:35;;;;;;;;;;;11.50;99.90;;;;;;5090647;28;19909;-71
2022/11/11 14:45:01;;;;;;;;;;;11.40;99.90;;;;;;5090495;28;19908;-71
2022/11/11 14:47:29;;;;;;;;;;;11.30;99.90;;;;;;5089681;28;20380;-72
2022/11/11 14:49:55;;;;;;;;;;;11.30;99.90;;;;;;5090553;28;19908;-72
2022/11/11 14:52:27;;;;;;;;;;;11.20;99.90;;;;;;5090793;28;20248;-72
2022/11/11 14:55:02;;;;;;;;;;;11.20;99.90;;;;;;5090370;28;20296;-72
2022/11/11 14:57:33;;;;;;;;;;;11.10;99.90;;;;;;5090377;28;20288;-72
2022/11/11 15:00:00;;;;;;;;;;;11.00;99.90;;;;;;5090332;28;19916;-72
2022/11/11 15:02:49;;;;;;;;;;;10.90;99.90;;;;;;5090578;28;19915;-72
2022/11/11 15:05:33;;;;;;;;;;;10.80;99.90;;;;;;5083791;28;20384;-71
2022/11/11 15:08:01;;;;;;;;;;;10.70;99.90;;;;;;5090217;28;19916;-71
2022/11/11 15:10:36;;;;;;;;;;;10.60;99.90;;;;;;5088812;28;19909;-71
2022/11/11 15:13:10;;;;;;;;;;;10.50;99.90;;;;;;5090132;28;19909;-72
2022/11/11 15:15:38;;;;;;;;;;;10.40;99.90;;;;;;5089822;28;19944;-72
2022/11/11 15:18:03;;;;;;;;;;;10.40;99.90;;;;;;5089876;28;19908;-72
2022/11/11 15:20:29;;;;;;;;;;;10.30;99.90;;;;;;5088598;28;19908;-71
2022/11/11 15:23:00;;;;;;;;;;;10.20;99.90;;;;;;5089859;28;19908;-71
2022/11/11 15:25:27;;;;;;;;;;;10.10;99.90;;;;;;5089754;28;19957;-71
2022/11/11 15:28:10;;;;;;;;;;;9.90;99.90;;;;;;5075944;28;19909;-71
2022/11/11 15:30:44;;;;;;;;;;;9.90;99.90;;;;;;5076212;28;19953;-71
2022/11/11 15:33:36;;;;;;;;;;;9.80;99.90;;;;;;5076525;28;19916;-72
2022/11/11 15:36:08;;;;;;;;;;;9.60;99.90;;;;;;5073727;28;20368;-71
2022/11/11 15:38:33;;;;;;;;;;;9.50;99.90;;;;;;5076097;28;19951;-71
2022/11/11 15:40:59;;;;;;;;;;;9.40;99.90;;;;;;5076363;28;20324;-72
2022/11/11 15:43:29;;;;;;;;;;;9.30;99.90;;;;;;5076015;28;19962;-71
2022/11/11 15:45:58;;;;;;;;;;;9.10;99.90;;;;;;5076188;28;19922;-71
2022/11/11 15:48:33;;;;;;;;;;;9.00;99.90;;;;;;5075969;28;19991;-72
2022/11/11 15:51:13;;;;;;;;;;;8.90;99.90;;;;;;5076443;28;19919;-72
2022/11/11 15:53:38;;;;;;;;;;;8.80;99.90;;;;;;5076407;28;19912;-71
2022/11/11 15:56:04;;;;;;;;;;;8.70;99.90;;;;;;5076204;28;19939;-71